Time;durP1;ratioP1;P1;durP2;ratioP2;P2;SDS_P1;SDS_P2;PMS_P1;PMS_P2;Temp;Humidity;BMP_temperature;BMP_pressure;BME280_temperature;BME280_humidity;BME280_pressure;Samples;Min_cycle;Max_cycle;Signal;HPM_P1;HPM_P2
2020/11/20 00:01:43;;;;;;;27.3;22.5;;;;;;;6.37;85.73535;99246.97;;;;
2020/11/20 00:11:41;;;;;;;31.2;23.6;;;;;;;6.39;85.25977;99242.14;;;;
2020/11/20 00:21:39;;;;;;;21.7;17.3;;;;;;;6.29;84.87305;99220.7;;;;
2020/11/20 00:31:37;;;;;;;28.8;20.2;;;;;;;6.18;85.20801;99241.28;;;;
2020/11/20 00:41:36;;;;;;;25.3;20.3;;;;;;;6.11;84.84668;99245.29;;;;
2020/11/20 00:51:34;;;;;;;16.2;14.5;;;;;;;6.04;84.70117;99253.53;;;;
2020/11/20 01:01:32;;;;;;;22.2;16.5;;;;;;;6.09;84.1084;99258.92;;;;
2020/11/20 01:11:31;;;;;;;22.4;17.2;;;;;;;6.17;83.29883;99266.45;;;;
2020/11/20 01:21:29;;;;;;;20.8;15.2;;;;;;;6.29;82.75488;99285.75;;;;
2020/11/20 01:31:27;;;;;;;22.6;13.6;;;;;;;6.32;82.06836;99287.09;;;;
2020/11/20 01:41:25;;;;;;;20.2;17.1;;;;;;;6.34;80.90039;99301.04;;;;
2020/11/20 01:51:24;;;;;;;22.9;14.5;;;;;;;6.36;80.64844;99299.7;;;;
2020/11/20 02:01:22;;;;;;;25.9;17.5;;;;;;;6.4;80.31055;99298.11;;;;
2020/11/20 02:11:20;;;;;;;37.6;16.4;;;;;;;6.34;80.29785;99301.04;;;;
2020/11/20 02:21:19;;;;;;;23.3;17.5;;;;;;;6.34;80.33105;99298.36;;;;
2020/11/20 02:31:17;;;;;;;23.1;16.8;;;;;;;6.3;80.49219;99321.36;;;;
2020/11/20 02:41:15;;;;;;;20.4;16.7;;;;;;;6.13;78.84082;99320.75;;;;
2020/11/20 02:51:14;;;;;;;24.2;18.1;;;;;;;5.97;78.81445;99334.04;;;;
2020/11/20 03:01:12;;;;;;;31.3;25.1;;;;;;;5.88;79.57715;99348.97;;;;
2020/11/20 03:21:09;;;;;;;23;14.6;;;;;;;5.59;76.08008;99377.88;;;;
2020/11/20 03:31:07;;;;;;;16.9;8.4;;;;;;;5.41;72.94531;99396.19;;;;
2020/11/20 03:41:05;;;;;;;7.7;4.7;;;;;;;5.25;71.34473;99410.45;;;;
2020/11/20 03:51:03;;;;;;;9.8;3.9;;;;;;;5.09;71.26367;99422.86;;;;
2020/11/20 04:01:01;;;;;;;12.9;4.2;;;;;;;4.96;71.47559;99423.27;;;;
2020/11/20 04:11:00;;;;;;;9.6;4.3;;;;;;;4.83;71.43164;99440.45;;;;
2020/11/20 04:20:58;;;;;;;9;3.7;;;;;;;4.76;70.97363;99455.04;;;;
2020/11/20 04:30:56;;;;;;;13.5;4.7;;;;;;;4.63;71.32031;99448.22;;;;
2020/11/20 04:40:54;;;;;;;21.7;4.9;;;;;;;4.48;72.00879;99472.03;;;;
2020/11/20 04:50:52;;;;;;;12.2;4.3;;;;;;;4.41;71.60645;99485.55;;;;
2020/11/20 05:00:50;;;;;;;7.3;4.4;;;;;;;4.32;72.02637;99496.89;;;;
2020/11/20 05:10:48;;;;;;;5.9;3.7;;;;;;;4.19;70.44531;99510.57;;;;
2020/11/20 05:20:46;;;;;;;10.9;4.4;;;;;;;3.95;71.64355;99521.41;;;;
2020/11/20 05:30:44;;;;;;;16;5.5;;;;;;;3.77;72.4248;99534.95;;;;
2020/11/20 05:40:42;;;;;;;9.8;4.5;;;;;;;3.67;73.47363;99528.63;;;;
2020/11/20 05:50:40;;;;;;;9.6;4.6;;;;;;;3.57;74.10156;99545.25;;;;
2020/11/20 06:00:38;;;;;;;10;6;;;;;;;3.53;73.37305;99557.43;;;;
2020/11/20 06:10:36;;;;;;;12.6;4.8;;;;;;;3.42;73.62109;99577.74;;;;
2020/11/20 06:20:41;;;;;;;11.3;6.2;;;;;;;3.39;73.98145;99582.73;;;;
2020/11/20 06:30:32;;;;;;;10.4;5.1;;;;;;;3.38;73.42578;99600.58;;;;
2020/11/20 06:40:30;;;;;;;24;9.7;;;;;;;3.42;74.08789;99625.7;;;;
2020/11/20 06:50:28;;;;;;;17.1;10.2;;;;;;;3.34;73.80566;99627.91;;;;
2020/11/20 07:00:26;;;;;;;26.7;11.9;;;;;;;3.23;74.14258;99658.06;;;;
2020/11/20 07:10:28;;;;;;;19.7;10.2;;;;;;;3.28;74.00781;99674.95;;;;
2020/11/20 07:20:22;;;;;;;41.4;22.8;;;;;;;3.2;74.22656;99675.3;;;;
2020/11/20 07:30:20;;;;;;;19.5;13.9;;;;;;;3.09;74.90527;99678;;;;
2020/11/20 07:40:18;;;;;;;15.5;11.1;;;;;;;3.32;74.86816;99688.63;;;;
2020/11/20 07:50:15;;;;;;;25.9;8.4;;;;;;;3.64;73.71484;99687.19;;;;
2020/11/20 08:00:13;;;;;;;17.5;10.4;;;;;;;3.72;72.18359;99700.13;;;;
2020/11/20 08:10:11;;;;;;;18.8;8.1;;;;;;;3.55;71.75488;99700.06;;;;
2020/11/20 08:20:09;;;;;;;19.7;8;;;;;;;3.86;70.3584;99704.16;;;;
2020/11/20 08:30:08;;;;;;;17.9;5.4;;;;;;;4.2;69.64551;99718.41;;;;
2020/11/20 08:40:06;;;;;;;18.3;7.5;;;;;;;4.06;70.25781;99717.1;;;;
2020/11/20 08:50:04;;;;;;;10.6;6.6;;;;;;;3.75;70.98633;99730.87;;;;
2020/11/20 09:00:02;;;;;;;10.7;5.6;;;;;;;4.05;70.72363;99726.14;;;;
2020/11/20 09:10:00;;;;;;;17;10.7;;;;;;;4.16;70.62988;99729.82;;;;
2020/11/20 09:19:58;;;;;;;19.1;11.9;;;;;;;4.24;70.97754;99737.42;;;;
2020/11/20 09:29:56;;;;;;;20.1;8;;;;;;;4.26;71.18066;99732.68;;;;
2020/11/20 09:39:54;;;;;;;21.2;10.2;;;;;;;4.46;69.58789;99738.39;;;;
2020/11/20 09:49:52;;;;;;;29;7.3;;;;;;;4.12;66.49023;99742.82;;;;
2020/11/20 09:59:50;;;;;;;20.6;6.7;;;;;;;3.94;64.14355;99743.8;;;;
2020/11/20 10:09:48;;;;;;;18.1;4.9;;;;;;;4.34;61.47949;99738.42;;;;
2020/11/20 10:19:47;;;;;;;21;6.3;;;;;;;4.96;58.87012;99744.59;;;;
2020/11/20 10:29:45;;;;;;;10.4;5.4;;;;;;;4.89;59.4873;99746.64;;;;
2020/11/20 10:39:46;;;;;;;9.9;5;;;;;;;4.49;59.5;99738.72;;;;
2020/11/20 10:49:41;;;;;;;13;5.2;;;;;;;4.44;60.49707;99740.5;;;;
2020/11/20 10:59:39;;;;;;;11.6;4.3;;;;;;;4.19;62.05859;99740.02;;;;
2020/11/20 11:09:37;;;;;;;8.5;4.2;;;;;;;4.42;62.07129;99735.38;;;;
2020/11/20 11:19:35;;;;;;;12.2;6.4;;;;;;;4.34;61.42188;99732.31;;;;
2020/11/20 11:29:35;;;;;;;7.7;4.6;;;;;;;4.29;59.62793;99725.01;;;;
2020/11/20 11:39:31;;;;;;;12.2;5.4;;;;;;;4.33;60.18164;99738.69;;;;
2020/11/20 11:49:30;;;;;;;10.3;5.3;;;;;;;4.37;58.99023;99729.94;;;;
2020/11/20 11:59:27;;;;;;;11.2;4.5;;;;;;;4.84;58.97559;99729.7;;;;
2020/11/20 12:09:28;;;;;;;14.4;5;;;;;;;4.94;57.21973;99727.19;;;;
2020/11/20 12:19:26;;;;;;;10.2;4.7;;;;;;;5.1;57.51172;99739.77;;;;
2020/11/20 12:29:22;;;;;;;9.4;3.7;;;;;;;5.31;55.98047;99741.66;;;;
2020/11/20 12:39:20;;;;;;;17.7;2.7;;;;;;;5.15;52.58301;99749.7;;;;
2020/11/20 12:49:18;;;;;;;6.6;3;;;;;;;4.94;53.08398;99756.58;;;;
2020/11/20 12:59:16;;;;;;;11.8;4.9;;;;;;;4.38;57.76172;99768.12;;;;
2020/11/20 13:09:17;;;;;;;9.2;3.5;;;;;;;4.12;58.85547;99776.69;;;;
2020/11/20 13:19:12;;;;;;;12;4.3;;;;;;;4.15;58.50195;99795.7;;;;
2020/11/20 13:29:10;;;;;;;9.6;5.2;;;;;;;4.19;59.29004;99807.53;;;;
2020/11/20 13:39:08;;;;;;;7.2;5.1;;;;;;;4.05;59.68457;99822.98;;;;
2020/11/20 13:49:07;;;;;;;10.9;4.3;;;;;;;3.92;57.46582;99831.22;;;;
2020/11/20 13:59:04;;;;;;;10.8;6.2;;;;;;;4.07;57.10449;99836.07;;;;
2020/11/20 14:09:05;;;;;;;8.9;4.2;;;;;;;4.12;57.90527;99843.38;;;;
2020/11/20 14:19:00;;;;;;;7.6;5.1;;;;;;;3.99;58.21289;99855.91;;;;
2020/11/20 14:28:58;;;;;;;10.3;5.6;;;;;;;3.73;55.71875;99866.24;;;;
2020/11/20 14:38:56;;;;;;;7.5;3.2;;;;;;;3.49;56.83887;99890.22;;;;
2020/11/20 14:48:54;;;;;;;7.9;4.3;;;;;;;3.21;58.44043;99887.38;;;;
2020/11/20 14:58:52;;;;;;;5.8;3.8;;;;;;;2.72;60.91406;99904.44;;;;
2020/11/20 15:08:50;;;;;;;7.7;4;;;;;;;2.4;62.52539;99917.09;;;;
2020/11/20 15:18:48;;;;;;;11.4;6.3;;;;;;;2.13;64.08398;99934.37;;;;
2020/11/20 15:28:46;;;;;;;14.1;8.3;;;;;;;1.75;65.04883;99947.8;;;;
2020/11/20 15:38:43;;;;;;;16.6;11.6;;;;;;;1.51;66.98535;99962.7;;;;
2020/11/20 15:48:41;;;;;;;16.9;11.2;;;;;;;1.24;67.99316;99971.05;;;;
2020/11/20 15:58:39;;;;;;;14.3;10.9;;;;;;;1.1;68.86719;99982.77;;;;
2020/11/20 16:08:37;;;;;;;19.7;13.4;;;;;;;0.94;70.25684;100000.8;;;;
2020/11/20 16:18:34;;;;;;;25;17.1;;;;;;;0.74;71.33984;100008;;;;
2020/11/20 16:28:32;;;;;;;30.5;17.1;;;;;;;0.58;72.1748;100024.4;;;;
2020/11/20 16:38:29;;;;;;;45;26.6;;;;;;;0.3;72.88672;100037.1;;;;
2020/11/20 16:48:27;;;;;;;30.1;20;;;;;;;0.25;72.91211;100061.5;;;;
2020/11/20 16:58:26;;;;;;;25.1;19.9;;;;;;;0.18;72.6582;100070.5;;;;
2020/11/20 17:08:22;;;;;;;22.2;15.4;;;;;;;0.07;73.05664;100089.7;;;;
2020/11/20 17:18:20;;;;;;;26;18.5;;;;;;;-0.06;73.33301;100111.7;;;;
2020/11/20 17:28:17;;;;;;;29.7;20.6;;;;;;;-0.34;73.80078;100129.5;;;;
2020/11/20 17:38:15;;;;;;;16.7;14.7;;;;;;;-0.47;75.09961;100135.6;;;;
2020/11/20 17:48:12;;;;;;;34.8;23.7;;;;;;;-0.62;75.43555;100148.2;;;;
2020/11/20 17:58:13;;;;;;;31.1;20.8;;;;;;;-0.63;76.53516;100150;;;;
2020/11/20 18:08:07;;;;;;;55.9;36.5;;;;;;;-0.72;77.00098;100153;;;;
2020/11/20 18:18:05;;;;;;;28;18.9;;;;;;;-1.17;76.61328;100157;;;;
2020/11/20 18:28:02;;;;;;;22.9;17.5;;;;;;;-1.54;76.79785;100163.5;;;;
2020/11/20 18:37:59;;;;;;;27.5;19.5;;;;;;;-1.81;78.00879;100188;;;;
2020/11/20 18:47:57;;;;;;;42.7;24.1;;;;;;;-2.04;79.46777;100199.6;;;;
2020/11/20 18:57:54;;;;;;;43.8;28.1;;;;;;;-2.01;79.8457;100208.9;;;;
2020/11/20 19:07:51;;;;;;;51;28.4;;;;;;;-1.93;81.2832;100219.4;;;;
2020/11/20 19:17:49;;;;;;;45.1;32.2;;;;;;;-2.08;80.34766;100237.9;;;;
2020/11/20 19:27:46;;;;;;;36.4;23.8;;;;;;;-2.29;80.53711;100253.7;;;;
2020/11/20 19:37:46;;;;;;;37.4;24;;;;;;;-2.5;80.74902;100266.8;;;;
2020/11/20 19:47:41;;;;;;;43.7;25.1;;;;;;;-2.64;81.22461;100281.6;;;;
2020/11/20 19:57:38;;;;;;;33.3;21.5;;;;;;;-2.75;82.15234;100290;;;;
2020/11/20 20:07:35;;;;;;;54.2;28.9;;;;;;;-2.73;83.54199;100298.6;;;;
2020/11/20 20:17:33;;;;;;;44.6;31.2;;;;;;;-2.71;83.85352;100311.6;;;;
2020/11/20 20:27:30;;;;;;;42.7;28.6;;;;;;;-2.67;83.52148;100323.4;;;;
2020/11/20 20:37:27;;;;;;;49.9;25.7;;;;;;;-2.65;84.79102;100337.3;;;;
2020/11/20 20:47:27;;;;;;;44.8;26.2;;;;;;;-2.69;83.7041;100338.6;;;;
2020/11/20 20:57:22;;;;;;;31.2;23.5;;;;;;;-2.8;83.58496;100339.8;;;;
2020/11/20 21:07:19;;;;;;;30;21.8;;;;;;;-2.84;83.72852;100357;;;;
2020/11/20 21:17:16;;;;;;;43.2;28.1;;;;;;;-2.66;84.48438;100356.7;;;;
2020/11/20 21:27:13;;;;;;;40.7;27.4;;;;;;;-2.55;85.11816;100364.2;;;;
2020/11/20 21:37:10;;;;;;;33.4;28.3;;;;;;;-2.33;84.88867;100350.1;;;;
2020/11/20 21:47:08;;;;;;;46.1;30;;;;;;;-2.13;85.61816;100361.8;;;;
2020/11/20 21:57:05;;;;;;;33.6;24.4;;;;;;;-2.1;85.22949;100368.5;;;;
2020/11/20 22:07:02;;;;;;;44.3;25.2;;;;;;;-2.16;85.44629;100369.3;;;;
2020/11/20 22:17:00;;;;;;;46.1;27.1;;;;;;;-2.2;86.06055;100357.4;;;;
2020/11/20 22:26:57;;;;;;;49.8;31.8;;;;;;;-2.09;86.06348;100368.4;;;;
2020/11/20 22:36:55;;;;;;;48.5;30.6;;;;;;;-1.79;86.45117;100368.3;;;;
2020/11/20 22:46:52;;;;;;;41.1;25.1;;;;;;;-1.34;86.25781;100381.3;;;;
2020/11/20 22:56:49;;;;;;;28.9;22.6;;;;;;;-1.11;85.23145;100381.9;;;;
2020/11/20 23:06:47;;;;;;;33.1;21.3;;;;;;;-0.96;84.5918;100396.9;;;;
2020/11/20 23:16:44;;;;;;;37.5;25.4;;;;;;;-0.85;84.07813;100394.6;;;;
2020/11/20 23:26:41;;;;;;;26;18.9;;;;;;;-0.7;83.0332;100406;;;;
2020/11/20 23:36:39;;;;;;;20.8;16.3;;;;;;;-0.48;82.50586;100409.4;;;;
2020/11/20 23:46:36;;;;;;;30.2;26.7;;;;;;;-0.41;82.14258;100398.8;;;;
2020/11/20 23:56:34;;;;;;;22.1;17.6;;;;;;;-0.34;81.64258;100400.5;;;;
